createdAt,value
2018-03-03T00:00:01.262Z,0
2018-03-03T00:01:01.236Z,0
2018-03-03T00:02:00.944Z,0
2018-03-03T00:03:00.904Z,0
2018-03-03T00:04:00.871Z,0
2018-03-03T00:05:00.839Z,0
2018-03-03T00:06:00.550Z,0
2018-03-03T00:07:01.019Z,0
2018-03-03T00:08:00.736Z,0
2018-03-03T00:09:00.958Z,0
2018-03-03T00:10:00.666Z,0
2018-03-03T00:11:00.879Z,0
2018-03-03T00:12:00.855Z,0
2018-03-03T00:13:00.913Z,0
2018-03-03T00:14:00.776Z,0
2018-03-03T00:15:00.494Z,0
2018-03-03T00:16:00.711Z,0
2018-03-03T00:17:00.685Z,0
2018-03-03T00:18:00.390Z,0
2018-03-03T00:19:00.615Z,0
2018-03-03T00:20:00.576Z,0
2018-03-03T00:21:00.536Z,0
2018-03-03T00:22:00.266Z,0
2018-03-03T00:23:00.229Z,0
2018-03-03T00:24:00.438Z,0
2018-03-03T00:25:00.408Z,0
2018-03-03T00:26:00.376Z,0
2018-03-03T00:27:00.333Z,0
2018-03-03T00:28:00.052Z,0
2018-03-03T00:29:00.018Z,0
2018-03-03T00:29:59.736Z,0
2018-03-03T00:30:59.954Z,0
2018-03-03T00:32:00.167Z,0
2018-03-03T00:33:00.134Z,0
2018-03-03T00:34:00.102Z,0
2018-03-03T00:35:00.065Z,0
2018-03-03T00:35:59.782Z,0
2018-03-03T00:36:59.495Z,0
2018-03-03T00:37:59.952Z,0
2018-03-03T00:38:59.938Z,0
2018-03-03T00:39:59.894Z,0
2018-03-03T00:40:59.359Z,0
2018-03-03T00:41:59.829Z,0
2018-03-03T00:42:59.798Z,0
2018-03-03T00:43:59.518Z,0
2018-03-03T00:44:59.486Z,0
2018-03-03T00:45:59.187Z,0
2018-03-03T00:46:59.650Z,0
2018-03-03T00:47:59.619Z,0
2018-03-03T00:48:59.587Z,0
2018-03-03T00:49:59.553Z,0
2018-03-03T00:50:59.267Z,0
2018-03-03T00:51:59.479Z,0
2018-03-03T00:52:59.445Z,0
2018-03-03T00:53:59.415Z,0
2018-03-03T00:54:59.137Z,0
2018-03-03T00:55:58.600Z,0
2018-03-03T00:56:59.094Z,0
2018-03-03T00:57:59.024Z,0
2018-03-03T00:58:59.256Z,0
2018-03-03T00:59:59.212Z,0
2018-03-03T01:00:58.924Z,0
2018-03-03T01:01:59.139Z,0
2018-03-03T01:02:59.207Z,0
2018-03-03T01:03:58.829Z,0
2018-03-03T01:04:59.031Z,0
2018-03-03T01:05:58.499Z,0
2018-03-03T01:06:58.963Z,0
2018-03-03T01:07:58.928Z,0
2018-03-03T01:08:58.652Z,0
2018-03-03T01:09:58.861Z,0
2018-03-03T01:10:58.829Z,0
2018-03-03T01:11:59.034Z,0
2018-03-03T01:12:58.763Z,0
2018-03-03T01:13:58.730Z,0
2018-03-03T01:14:58.459Z,0
2018-03-03T01:15:58.408Z,0
2018-03-03T01:16:58.623Z,0
2018-03-03T01:17:58.587Z,0
2018-03-03T01:18:58.552Z,0
2018-03-03T01:19:58.518Z,0
2018-03-03T01:20:57.988Z,0
2018-03-03T01:21:58.453Z,0
2018-03-03T01:22:58.413Z,0
2018-03-03T01:23:58.376Z,0
2018-03-03T01:24:58.343Z,0
2018-03-03T01:25:58.063Z,0
2018-03-03T01:26:58.032Z,0
2018-03-03T01:27:58.270Z,0
2018-03-03T01:28:58.206Z,0
2018-03-03T01:29:57.945Z,0
2018-03-03T01:30:58.133Z,0
2018-03-03T01:31:58.102Z,0
2018-03-03T01:32:58.071Z,0
2018-03-03T01:33:58.033Z,0
2018-03-03T01:34:57.749Z,0
2018-03-03T01:35:57.966Z,0
2018-03-03T01:36:57.926Z,0
2018-03-03T01:37:57.900Z,0
2018-03-03T01:38:57.614Z,0
2018-03-03T01:39:57.588Z,0
2018-03-03T01:40:57.794Z,0
2018-03-03T01:41:57.508Z,0
2018-03-03T01:42:57.723Z,0
2018-03-03T01:43:57.441Z,0
2018-03-03T01:44:57.409Z,0
2018-03-03T01:45:57.609Z,0
2018-03-03T01:46:57.086Z,0
2018-03-03T01:47:57.542Z,0
2018-03-03T01:48:57.514Z,0
2018-03-03T01:49:57.224Z,0
2018-03-03T01:50:57.190Z,0
2018-03-03T01:51:57.162Z,0
2018-03-03T01:52:57.366Z,0
2018-03-03T01:53:57.090Z,0
2018-03-03T01:54:57.049Z,0
2018-03-03T01:55:57.263Z,0
2018-03-03T01:56:57.232Z,0
2018-03-03T01:57:56.704Z,0
2018-03-03T01:58:56.911Z,0
2018-03-03T01:59:57.136Z,0
2018-03-03T02:00:57.094Z,0
2018-03-03T02:01:57.057Z,0
2018-03-03T02:02:57.034Z,0
2018-03-03T02:03:56.985Z,0
2018-03-03T02:04:56.704Z,0
2018-03-03T02:05:56.664Z,0
2018-03-03T02:06:56.880Z,0
2018-03-03T02:07:56.592Z,0
2018-03-03T02:08:56.809Z,0
2018-03-03T02:09:56.771Z,0
2018-03-03T02:10:56.778Z,0
2018-03-03T02:11:56.465Z,0
2018-03-03T02:12:56.672Z,0
2018-03-03T02:13:56.386Z,0
2018-03-03T02:14:56.604Z,0
2018-03-03T02:15:56.314Z,0
2018-03-03T02:16:56.523Z,0
2018-03-03T02:17:56.241Z,0
2018-03-03T02:18:56.454Z,0
2018-03-03T02:19:56.423Z,0
2018-03-03T02:20:56.383Z,0
2018-03-03T02:21:56.401Z,0
2018-03-03T02:22:56.068Z,0
2018-03-03T02:23:56.285Z,0
2018-03-03T02:24:55.995Z,0
2018-03-03T02:25:56.215Z,0
2018-03-03T02:26:56.175Z,0
2018-03-03T02:27:55.690Z,0
2018-03-03T02:28:56.112Z,0
2018-03-03T02:29:56.171Z,0
2018-03-03T02:30:56.060Z,0
2018-03-03T02:31:56.008Z,0
2018-03-03T02:32:55.967Z,0
2018-03-03T02:33:55.946Z,0
2018-03-03T02:34:55.915Z,0
2018-03-03T02:35:55.882Z,0
2018-03-03T02:36:55.837Z,0
2018-03-03T02:37:55.788Z,0
2018-03-03T02:38:55.506Z,0
2018-03-03T02:39:55.726Z,0
2018-03-03T02:40:55.685Z,0
2018-03-03T02:41:55.402Z,0
2018-03-03T02:42:55.368Z,0
2018-03-03T02:43:55.585Z,0
2018-03-03T02:44:55.301Z,0
2018-03-03T02:45:55.007Z,0
2018-03-03T02:46:54.986Z,0
2018-03-03T02:47:55.196Z,0
2018-03-03T02:48:55.421Z,0
2018-03-03T02:49:55.118Z,0
2018-03-03T02:50:55.330Z,0
2018-03-03T02:51:55.301Z,0
2018-03-03T02:52:54.768Z,0
2018-03-03T02:53:55.232Z,0
2018-03-03T02:54:55.185Z,0
2018-03-03T02:55:54.919Z,0
2018-03-03T02:56:54.875Z,0
2018-03-03T02:57:55.103Z,0
2018-03-03T02:58:55.052Z,0
2018-03-03T02:59:55.035Z,0
2018-03-03T03:00:54.994Z,0
2018-03-03T03:01:54.950Z,0
2018-03-03T03:02:54.915Z,0
2018-03-03T03:03:54.882Z,0
2018-03-03T03:04:54.841Z,0
2018-03-03T03:05:54.821Z,0
2018-03-03T03:06:54.524Z,0
2018-03-03T03:07:54.746Z,0
2018-03-03T03:08:54.737Z,0
2018-03-03T03:09:54.657Z,0
2018-03-03T03:10:54.625Z,0
2018-03-03T03:11:54.588Z,0
2018-03-03T03:12:54.302Z,0
2018-03-03T03:13:54.413Z,0
2018-03-03T03:14:54.235Z,0
2018-03-03T03:15:54.499Z,0
2018-03-03T03:16:54.406Z,0
2018-03-03T03:17:54.377Z,0
2018-03-03T03:18:54.346Z,0
2018-03-03T03:19:54.061Z,0
2018-03-03T03:20:54.273Z,0
2018-03-03T03:21:54.236Z,0
2018-03-03T03:22:54.207Z,0
2018-03-03T03:23:53.911Z,0
2018-03-03T03:24:53.882Z,0
2018-03-03T03:25:54.106Z,0
2018-03-03T03:26:53.808Z,0
2018-03-03T03:27:53.774Z,0
2018-03-03T03:28:53.994Z,0
2018-03-03T03:29:53.949Z,0
2018-03-03T03:30:53.932Z,0
2018-03-03T03:31:53.884Z,0
2018-03-03T03:32:53.855Z,0
2018-03-03T03:33:53.555Z,0
2018-03-03T03:34:53.526Z,0
2018-03-03T03:35:53.743Z,0
2018-03-03T03:36:53.697Z,0
2018-03-03T03:37:53.659Z,0
2018-03-03T03:38:53.384Z,0
2018-03-03T03:39:53.598Z,0
2018-03-03T03:40:53.560Z,0
2018-03-03T03:41:53.531Z,0
2018-03-03T03:42:53.236Z,0
2018-03-03T03:43:53.207Z,0
2018-03-03T03:44:53.416Z,0
2018-03-03T03:45:53.402Z,0
2018-03-03T03:46:53.094Z,0
2018-03-03T03:47:53.316Z,0
2018-03-03T03:48:53.293Z,0
2018-03-03T03:49:53.243Z,0
2018-03-03T03:50:53.218Z,0
2018-03-03T03:51:53.165Z,0
2018-03-03T03:52:53.132Z,0
2018-03-03T03:53:52.856Z,0
2018-03-03T03:54:52.805Z,0
2018-03-03T03:55:53.030Z,0
2018-03-03T03:56:52.741Z,0
2018-03-03T03:57:52.712Z,0
2018-03-03T03:58:52.925Z,0
2018-03-03T03:59:52.886Z,0
2018-03-03T04:00:52.598Z,0
2018-03-03T04:01:52.816Z,0
2018-03-03T04:02:52.781Z,0
2018-03-03T04:03:52.739Z,0
2018-03-03T04:04:53.853Z,0
2018-03-03T04:05:52.679Z,0
2018-03-03T04:06:52.394Z,0
2018-03-03T04:07:52.347Z,0
2018-03-03T04:08:52.320Z,0
2018-03-03T04:09:52.539Z,0
2018-03-03T04:10:52.490Z,0
2018-03-03T04:11:52.623Z,0
2018-03-03T04:12:52.421Z,0
2018-03-03T04:13:52.393Z,0
2018-03-03T04:14:52.355Z,0
2018-03-03T04:15:52.308Z,0
2018-03-03T04:16:52.283Z,0
2018-03-03T04:17:52.255Z,0
2018-03-03T04:18:51.958Z,0
2018-03-03T04:19:51.922Z,0
2018-03-03T04:20:52.187Z,0
2018-03-03T04:21:52.121Z,0
2018-03-03T04:22:51.814Z,0
2018-03-03T04:23:52.028Z,0
2018-03-03T04:24:51.758Z,0
2018-03-03T04:25:51.713Z,0
2018-03-03T04:26:51.926Z,0
2018-03-03T04:27:51.883Z,0
2018-03-03T04:28:51.842Z,0
2018-03-03T04:29:51.824Z,0
2018-03-03T04:30:51.778Z,0
2018-03-03T04:31:51.749Z,0
2018-03-03T04:32:51.710Z,0
2018-03-03T04:33:51.674Z,0
2018-03-03T04:34:51.646Z,0
2018-03-03T04:35:51.605Z,0
2018-03-03T04:36:51.562Z,0
2018-03-03T04:37:51.532Z,0
2018-03-03T04:38:51.257Z,0
2018-03-03T04:39:51.207Z,0
2018-03-03T04:40:51.424Z,0
2018-03-03T04:41:51.140Z,0
2018-03-03T04:42:51.107Z,0
2018-03-03T04:43:51.318Z,0
2018-03-03T04:44:51.279Z,0
2018-03-03T04:45:51.243Z,0
2018-03-03T04:46:51.201Z,0
2018-03-03T04:47:51.176Z,0
2018-03-03T04:48:50.893Z,0
2018-03-03T04:49:51.101Z,0
2018-03-03T04:50:51.077Z,0
2018-03-03T04:51:51.030Z,0
2018-03-03T04:52:50.999Z,0
2018-03-03T04:53:50.970Z,0
2018-03-03T04:54:50.929Z,0
2018-03-03T04:55:50.888Z,0
2018-03-03T04:56:50.847Z,0
2018-03-03T04:57:50.813Z,0
2018-03-03T04:58:50.542Z,0
2018-03-03T04:59:50.749Z,0
2018-03-03T05:00:50.712Z,0
2018-03-03T05:01:50.688Z,0
2018-03-03T05:02:50.464Z,0
2018-03-03T05:03:50.609Z,0
2018-03-03T05:04:50.567Z,0
2018-03-03T05:05:50.531Z,0
2018-03-03T05:06:50.490Z,0
2018-03-03T05:07:50.215Z,0
2018-03-03T05:08:50.421Z,0
2018-03-03T05:09:50.387Z,0
2018-03-03T05:10:50.353Z,0
2018-03-03T05:11:50.336Z,0
2018-03-03T05:12:50.341Z,0
2018-03-03T05:13:50.253Z,0
2018-03-03T05:14:49.721Z,0
2018-03-03T05:15:49.925Z,0
2018-03-03T05:16:50.136Z,0
2018-03-03T05:17:49.848Z,0
2018-03-03T05:18:49.821Z,0
2018-03-03T05:19:50.041Z,0
2018-03-03T05:20:49.998Z,0
2018-03-03T05:21:49.958Z,0
2018-03-03T05:22:49.480Z,0
2018-03-03T05:23:49.888Z,0
2018-03-03T05:24:49.719Z,0
2018-03-03T05:25:49.822Z,0
2018-03-03T05:26:49.786Z,0
2018-03-03T05:27:49.598Z,0
2018-03-03T05:28:49.702Z,0
2018-03-03T05:29:49.685Z,0
2018-03-03T05:30:49.633Z,0
2018-03-03T05:31:49.608Z,0
2018-03-03T05:32:49.596Z,0
2018-03-03T05:33:49.533Z,0
2018-03-03T05:34:49.498Z,0
2018-03-03T05:35:48.957Z,0
2018-03-03T05:36:49.427Z,0
2018-03-03T05:37:49.388Z,0
2018-03-03T05:38:49.370Z,0
2018-03-03T05:39:49.320Z,0
2018-03-03T05:40:49.291Z,0
2018-03-03T05:41:48.504Z,0
2018-03-03T05:42:50.650Z,0
2018-03-03T05:43:49.871Z,0
2018-03-03T05:44:49.141Z,0
2018-03-03T05:45:49.105Z,0
2018-03-03T05:46:49.072Z,0
2018-03-03T05:47:49.034Z,0
2018-03-03T05:48:48.747Z,0
2018-03-03T05:49:48.953Z,0
2018-03-03T05:50:48.938Z,0
2018-03-03T05:51:48.914Z,0
2018-03-03T05:52:48.864Z,0
2018-03-03T05:53:48.932Z,0
2018-03-03T05:54:48.793Z,0
2018-03-03T05:55:48.504Z,0
2018-03-03T05:56:48.773Z,0
2018-03-03T05:57:48.430Z,0
2018-03-03T05:58:48.402Z,0
2018-03-03T05:59:48.605Z,0
2018-03-03T06:00:48.579Z,0
2018-03-03T06:01:48.538Z,0
2018-03-03T06:02:48.506Z,0
2018-03-03T06:03:48.468Z,0
2018-03-03T06:04:48.187Z,0
2018-03-03T06:05:48.398Z,0
2018-03-03T06:06:48.366Z,0
2018-03-03T06:07:48.423Z,0
2018-03-03T06:08:48.292Z,0
2018-03-03T06:09:48.251Z,0
2018-03-03T06:10:47.973Z,0
2018-03-03T06:11:48.205Z,0
2018-03-03T06:12:48.214Z,0
2018-03-03T06:13:48.540Z,0
2018-03-03T06:14:47.827Z,0
2018-03-03T06:15:48.058Z,5
2018-03-03T06:16:48.021Z,5
2018-03-03T06:17:47.476Z,5
2018-03-03T06:18:47.693Z,5
2018-03-03T06:19:47.903Z,5
2018-03-03T06:20:47.623Z,5
2018-03-03T06:21:47.828Z,5
2018-03-03T06:22:47.824Z,5
2018-03-03T06:23:47.762Z,10
2018-03-03T06:24:47.733Z,10
2018-03-03T06:25:47.442Z,10
2018-03-03T06:26:47.656Z,10
2018-03-03T06:27:47.618Z,10
2018-03-03T06:28:47.587Z,10
2018-03-03T06:29:47.056Z,15
2018-03-03T06:30:47.516Z,15
2018-03-03T06:31:47.474Z,15
2018-03-03T06:32:47.201Z,15
2018-03-03T06:33:47.409Z,15
2018-03-03T06:34:47.118Z,20
2018-03-03T06:35:47.349Z,20
2018-03-03T06:36:47.306Z,20
2018-03-03T06:37:47.019Z,25
2018-03-03T06:38:47.228Z,25
2018-03-03T06:39:46.950Z,25
2018-03-03T06:40:47.160Z,25
2018-03-03T06:41:47.124Z,30
2018-03-03T06:42:47.090Z,30
2018-03-03T06:43:46.559Z,30
2018-03-03T06:44:47.024Z,35
2018-03-03T06:45:46.735Z,35
2018-03-03T06:46:46.705Z,35
2018-03-03T06:47:46.917Z,35
2018-03-03T06:48:46.645Z,40
2018-03-03T06:49:46.604Z,40
2018-03-03T06:50:46.563Z,40
2018-03-03T06:51:46.527Z,40
2018-03-03T06:52:46.741Z,45
2018-03-03T06:53:46.749Z,45
2018-03-03T06:54:46.672Z,45
2018-03-03T06:55:46.636Z,50
2018-03-03T06:56:46.607Z,50
2018-03-03T06:57:46.574Z,50
2018-03-03T06:58:46.547Z,50
2018-03-03T06:59:46.264Z,55
2018-03-03T07:00:46.000Z,55
2018-03-03T07:01:46.433Z,55
2018-03-03T07:02:46.412Z,55
2018-03-03T07:03:46.361Z,55
2018-03-03T07:04:46.324Z,60
2018-03-03T07:05:46.293Z,60
2018-03-03T07:06:46.258Z,60
2018-03-03T07:07:46.015Z,65
2018-03-03T07:08:46.194Z,65
2018-03-03T07:09:45.903Z,65
2018-03-03T07:10:46.118Z,70
2018-03-03T07:11:46.092Z,70
2018-03-03T07:12:45.800Z,70
2018-03-03T07:13:46.021Z,70
2018-03-03T07:14:45.986Z,70
2018-03-03T07:15:46.261Z,75
2018-03-03T07:16:45.913Z,75
2018-03-03T07:17:45.874Z,75
2018-03-03T07:18:45.847Z,75
2018-03-03T07:19:45.319Z,75
2018-03-03T07:20:45.773Z,75
2018-03-03T07:21:45.498Z,75
2018-03-03T07:22:45.738Z,75
2018-03-03T07:23:45.439Z,70
2018-03-03T07:24:45.392Z,70
2018-03-03T07:25:45.606Z,70
2018-03-03T07:26:45.582Z,65
2018-03-03T07:27:45.546Z,65
2018-03-03T07:28:45.533Z,65
2018-03-03T07:29:45.229Z,65
2018-03-03T07:30:45.442Z,65
2018-03-03T07:31:45.406Z,65
2018-03-03T07:32:45.363Z,65
2018-03-03T07:33:45.339Z,65
2018-03-03T07:34:45.301Z,65
2018-03-03T07:35:45.090Z,65
2018-03-03T07:36:45.231Z,65
2018-03-03T07:37:44.948Z,65
2018-03-03T07:38:45.158Z,65
2018-03-03T07:39:45.131Z,65
2018-03-03T07:40:45.089Z,70
2018-03-03T07:41:45.072Z,70
2018-03-03T07:42:45.028Z,75
2018-03-03T07:43:44.989Z,75
2018-03-03T07:44:44.710Z,75
2018-03-03T07:45:44.675Z,75
2018-03-03T07:46:44.390Z,75
2018-03-03T07:47:44.850Z,80
2018-03-03T07:48:44.574Z,80
2018-03-03T07:49:44.794Z,85
2018-03-03T07:50:44.750Z,85
2018-03-03T07:51:44.475Z,90
2018-03-03T07:52:44.440Z,90
2018-03-03T07:53:44.660Z,95
2018-03-03T07:54:44.613Z,95
2018-03-03T07:55:44.591Z,95
2018-03-03T07:56:44.545Z,100
2018-03-03T07:57:44.519Z,105
2018-03-03T07:58:44.480Z,105
2018-03-03T07:59:44.454Z,110
2018-03-03T08:00:44.419Z,115
2018-03-03T08:01:44.385Z,120
2018-03-03T08:02:44.471Z,120
2018-03-03T08:03:44.313Z,120
2018-03-03T08:04:44.276Z,125
2018-03-03T08:05:43.997Z,125
2018-03-03T08:06:44.213Z,130
2018-03-03T08:07:44.176Z,130
2018-03-03T08:08:43.898Z,135
2018-03-03T08:09:43.861Z,135
2018-03-03T08:10:43.826Z,135
2018-03-03T08:11:44.043Z,135
2018-03-03T08:12:44.009Z,135
2018-03-03T08:13:43.732Z,140
2018-03-03T08:14:43.952Z,145
2018-03-03T08:15:43.910Z,145
2018-03-03T08:16:43.886Z,150
2018-03-03T08:17:43.850Z,150
2018-03-03T08:18:43.819Z,150
2018-03-03T08:19:43.780Z,150
2018-03-03T08:20:43.503Z,155
2018-03-03T08:21:43.714Z,155
2018-03-03T08:22:43.776Z,160
2018-03-03T08:23:43.696Z,170
2018-03-03T08:24:43.607Z,180
2018-03-03T08:25:43.629Z,190
2018-03-03T08:26:43.496Z,195
2018-03-03T08:27:43.510Z,205
2018-03-03T08:28:43.304Z,205
2018-03-03T08:29:43.491Z,205
2018-03-03T08:30:43.423Z,205
2018-03-03T08:31:43.383Z,205
2018-03-03T08:32:43.346Z,205
2018-03-03T08:33:43.314Z,205
2018-03-03T08:34:43.279Z,200
2018-03-03T08:35:43.248Z,195
2018-03-03T08:36:43.222Z,190
2018-03-03T08:37:43.267Z,190
2018-03-03T08:38:43.156Z,185
2018-03-03T08:39:43.134Z,180
2018-03-03T08:40:43.089Z,180
2018-03-03T08:41:43.049Z,175
2018-03-03T08:42:43.030Z,175
2018-03-03T08:43:42.748Z,175
2018-03-03T08:44:42.712Z,175
2018-03-03T08:45:42.680Z,175
2018-03-03T08:46:42.644Z,175
2018-03-03T08:47:42.858Z,170
2018-03-03T08:48:42.831Z,170
2018-03-03T08:49:42.804Z,170
2018-03-03T08:50:42.761Z,165
2018-03-03T08:51:42.496Z,165
2018-03-03T08:52:42.707Z,165
2018-03-03T08:53:42.422Z,165
2018-03-03T08:54:42.636Z,165
2018-03-03T08:55:42.602Z,170
2018-03-03T08:56:42.325Z,170
2018-03-03T08:57:42.293Z,175
2018-03-03T08:58:42.261Z,175
2018-03-03T08:59:42.486Z,175
2018-03-03T09:00:42.439Z,175
2018-03-03T09:01:42.414Z,180
2018-03-03T09:02:42.379Z,180
2018-03-03T09:03:42.345Z,180
2018-03-03T09:04:42.118Z,180
2018-03-03T09:05:42.030Z,180
2018-03-03T09:06:42.006Z,180
2018-03-03T09:07:42.212Z,180
2018-03-03T09:08:41.686Z,175
2018-03-03T09:09:41.655Z,175
2018-03-03T09:10:42.132Z,175
2018-03-03T09:11:42.099Z,175
2018-03-03T09:12:42.550Z,175
2018-03-03T09:13:41.283Z,180
2018-03-03T09:14:41.742Z,180
2018-03-03T09:15:41.599Z,180
2018-03-03T09:16:41.924Z,185
2018-03-03T09:17:41.152Z,185
2018-03-03T09:18:41.367Z,180
2018-03-03T09:19:41.835Z,180
2018-03-03T09:20:41.553Z,180
2018-03-03T09:21:41.776Z,175
2018-03-03T09:22:41.486Z,180
2018-03-03T09:23:41.704Z,180
2018-03-03T09:24:40.921Z,180
2018-03-03T09:25:41.641Z,180
2018-03-03T09:26:41.605Z,180
2018-03-03T09:27:41.582Z,180
2018-03-03T09:28:41.678Z,180
2018-03-03T09:29:41.509Z,180
2018-03-03T09:30:41.230Z,180
2018-03-03T09:31:41.442Z,185
2018-03-03T09:32:41.412Z,185
2018-03-03T09:33:41.394Z,190
2018-03-03T09:34:41.356Z,190
2018-03-03T09:35:41.359Z,195
2018-03-03T09:36:41.291Z,195
2018-03-03T09:37:41.258Z,190
2018-03-03T09:38:40.981Z,190
2018-03-03T09:39:40.960Z,185
2018-03-03T09:40:41.164Z,180
2018-03-03T09:41:41.956Z,175
2018-03-03T09:42:40.849Z,175
2018-03-03T09:43:41.069Z,170
2018-03-03T09:44:41.033Z,170
2018-03-03T09:45:40.757Z,165
2018-03-03T09:46:40.975Z,165
2018-03-03T09:47:40.942Z,160
2018-03-03T09:48:40.911Z,160
2018-03-03T09:49:40.639Z,160
2018-03-03T09:50:40.607Z,160
2018-03-03T09:51:40.818Z,160
2018-03-03T09:52:40.785Z,160
2018-03-03T09:53:40.758Z,160
2018-03-03T09:54:40.718Z,160
2018-03-03T09:55:40.700Z,160
2018-03-03T09:56:40.410Z,160
2018-03-03T09:57:40.384Z,160
2018-03-03T09:58:40.596Z,165
2018-03-03T09:59:40.562Z,170
2018-03-03T10:00:40.530Z,175
2018-03-03T10:01:52.330Z,180
2018-03-03T10:02:40.222Z,185
2018-03-03T10:03:40.440Z,185
2018-03-03T10:04:40.404Z,185
2018-03-03T10:05:39.876Z,185
2018-03-03T10:06:39.846Z,185
2018-03-03T10:07:40.063Z,180
2018-03-03T10:08:40.032Z,180
2018-03-03T10:09:40.078Z,180
2018-03-03T10:10:39.968Z,180
2018-03-03T10:11:40.184Z,180
2018-03-03T10:12:39.912Z,185
2018-03-03T10:13:39.872Z,185
2018-03-03T10:14:40.092Z,190
2018-03-03T10:15:39.811Z,190
2018-03-03T10:16:39.779Z,185
2018-03-03T10:17:40.008Z,180
2018-03-03T10:18:39.968Z,175
2018-03-03T10:19:39.679Z,170
2018-03-03T10:20:39.901Z,165
2018-03-03T10:21:39.373Z,165
2018-03-03T10:22:39.602Z,160
2018-03-03T10:23:39.806Z,160
2018-03-03T10:24:39.775Z,155
2018-03-03T10:25:39.756Z,155
2018-03-03T10:26:39.727Z,155
2018-03-03T10:27:40.569Z,150
2018-03-03T10:28:39.404Z,150
2018-03-03T10:29:39.631Z,145
2018-03-03T10:30:39.590Z,145
2018-03-03T10:31:39.567Z,145
2018-03-03T10:32:39.523Z,150
2018-03-03T10:33:39.489Z,150
2018-03-03T10:34:39.212Z,150
2018-03-03T10:35:39.432Z,155
2018-03-03T10:36:39.153Z,155
2018-03-03T10:37:39.124Z,155
2018-03-03T10:38:39.080Z,155
2018-03-03T10:39:39.306Z,155
2018-03-03T10:40:39.290Z,150
2018-03-03T10:41:39.237Z,150
2018-03-03T10:42:38.711Z,150
2018-03-03T10:43:39.179Z,150
2018-03-03T10:44:38.646Z,155
2018-03-03T10:45:39.119Z,155
2018-03-03T10:46:38.584Z,160
2018-03-03T10:47:39.055Z,160
2018-03-03T10:48:39.016Z,160
2018-03-03T10:49:39.025Z,170
2018-03-03T10:50:38.987Z,175
2018-03-03T10:51:38.923Z,185
2018-03-03T10:52:38.889Z,190
2018-03-03T10:53:38.864Z,195
2018-03-03T10:54:38.328Z,200
2018-03-03T10:55:38.796Z,200
2018-03-03T10:56:38.768Z,205
2018-03-03T10:57:38.737Z,210
2018-03-03T10:58:38.823Z,210
2018-03-03T10:59:38.419Z,215
2018-03-03T11:00:38.641Z,220
2018-03-03T11:01:38.363Z,220
2018-03-03T11:02:38.583Z,225
2018-03-03T11:03:38.543Z,230
2018-03-03T11:04:38.513Z,230
2018-03-03T11:05:38.233Z,245
2018-03-03T11:06:38.449Z,250
2018-03-03T11:07:38.416Z,255
2018-03-03T11:08:38.382Z,265
2018-03-03T11:09:38.608Z,275
2018-03-03T11:10:38.293Z,285
2018-03-03T11:11:38.294Z,290
2018-03-03T11:12:38.623Z,295
2018-03-03T11:13:38.581Z,295
2018-03-03T11:14:37.958Z,300
2018-03-03T11:15:38.590Z,305
2018-03-03T11:16:38.522Z,315
2018-03-03T11:17:37.853Z,320
2018-03-03T11:18:37.825Z,325
2018-03-03T11:19:38.035Z,325
2018-03-03T11:20:37.519Z,320
2018-03-03T11:21:37.967Z,315
2018-03-03T11:22:37.707Z,310
2018-03-03T11:23:37.913Z,310
2018-03-03T11:24:37.983Z,310
2018-03-03T11:25:37.607Z,315
2018-03-03T11:26:37.577Z,320
2018-03-03T11:27:37.797Z,330
2018-03-03T11:28:38.004Z,335
2018-03-03T11:29:37.837Z,345
2018-03-03T11:30:37.713Z,345
2018-03-03T11:31:37.428Z,345
2018-03-03T11:32:37.386Z,340
2018-03-03T11:33:37.355Z,340
2018-03-03T11:34:37.325Z,345
2018-03-03T11:35:37.540Z,345
2018-03-03T11:36:37.509Z,350
2018-03-03T11:37:37.243Z,350
2018-03-03T11:38:37.212Z,350
2018-03-03T11:39:37.469Z,350
2018-03-03T11:40:42.515Z,345
2018-03-03T11:41:37.114Z,335
2018-03-03T11:42:37.077Z,330
2018-03-03T11:43:37.314Z,330
2018-03-03T11:44:37.023Z,330
2018-03-03T11:45:37.238Z,330
2018-03-03T11:46:36.708Z,330
2018-03-03T11:47:37.202Z,340
2018-03-03T11:48:36.898Z,345
2018-03-03T11:49:36.620Z,350
2018-03-03T11:50:37.092Z,345
2018-03-03T11:51:37.061Z,345
2018-03-03T11:52:37.033Z,340
2018-03-03T11:53:36.741Z,340
2018-03-03T11:54:36.720Z,345
2018-03-03T11:55:36.435Z,350
2018-03-03T11:56:36.652Z,355
2018-03-03T11:57:36.874Z,355
2018-03-03T11:58:36.340Z,360
2018-03-03T11:59:36.811Z,360
2018-03-03T12:00:36.785Z,360
2018-03-03T12:01:36.750Z,365
2018-03-03T12:02:36.723Z,365
2018-03-03T12:03:36.696Z,370
2018-03-03T12:04:36.663Z,370
2018-03-03T12:05:36.634Z,370
2018-03-03T12:06:36.605Z,375
2018-03-03T12:07:36.571Z,375
2018-03-03T12:08:36.292Z,380
2018-03-03T12:09:36.260Z,380
2018-03-03T12:10:36.501Z,380
2018-03-03T12:11:36.458Z,370
2018-03-03T12:12:36.170Z,360
2018-03-03T12:13:36.135Z,355
2018-03-03T12:14:36.116Z,355
2018-03-03T12:15:35.584Z,355
2018-03-03T12:16:36.294Z,360
2018-03-03T12:17:36.021Z,370
2018-03-03T12:18:36.231Z,380
2018-03-03T12:19:35.712Z,385
2018-03-03T12:20:35.927Z,390
2018-03-03T12:21:36.155Z,395
2018-03-03T12:22:35.616Z,400
2018-03-03T12:23:36.082Z,415
2018-03-03T12:24:35.805Z,420
2018-03-03T12:25:36.030Z,430
2018-03-03T12:26:35.991Z,445
2018-03-03T12:27:35.958Z,465
2018-03-03T12:28:35.937Z,480
2018-03-03T12:29:35.406Z,500
2018-03-03T12:30:36.048Z,520
2018-03-03T12:31:35.838Z,535
2018-03-03T12:32:35.799Z,545
2018-03-03T12:33:35.527Z,540
2018-03-03T12:34:35.499Z,525
2018-03-03T12:35:35.715Z,510
2018-03-03T12:36:35.685Z,500
2018-03-03T12:37:35.161Z,490
2018-03-03T12:38:35.626Z,485
2018-03-03T12:39:35.389Z,485
2018-03-03T12:40:35.580Z,485
2018-03-03T12:41:35.382Z,470
2018-03-03T12:42:35.255Z,450
2018-03-03T12:43:35.225Z,430
2018-03-03T12:44:35.202Z,415
2018-03-03T12:45:35.322Z,400
2018-03-03T12:46:35.142Z,375
2018-03-03T12:47:35.425Z,345
2018-03-03T12:48:35.078Z,330
2018-03-03T12:49:35.302Z,330
2018-03-03T12:50:35.268Z,335
2018-03-03T12:51:34.987Z,350
2018-03-03T12:52:34.708Z,360
2018-03-03T12:53:34.185Z,365
2018-03-03T12:54:35.141Z,380
2018-03-03T12:55:35.132Z,395
2018-03-03T12:56:35.085Z,405
2018-03-03T12:57:35.122Z,400
2018-03-03T12:58:35.116Z,400
2018-03-03T12:59:34.749Z,390
2018-03-03T13:00:34.968Z,385
2018-03-03T13:01:34.687Z,390
2018-03-03T13:02:34.906Z,405
2018-03-03T13:03:34.635Z,415
2018-03-03T13:04:34.845Z,415
2018-03-03T13:05:34.823Z,425
2018-03-03T13:06:34.794Z,420
2018-03-03T13:07:34.756Z,420
2018-03-03T13:08:34.477Z,420
2018-03-03T13:09:34.758Z,420
2018-03-03T13:10:34.431Z,420
2018-03-03T13:11:34.639Z,415
2018-03-03T13:12:34.112Z,415
2018-03-03T13:13:34.338Z,415
2018-03-03T13:14:34.295Z,420
2018-03-03T13:15:34.512Z,430
2018-03-03T13:16:34.483Z,435
2018-03-03T13:17:33.707Z,435
2018-03-03T13:18:34.427Z,435
2018-03-03T13:19:34.148Z,450
2018-03-03T13:20:34.124Z,465
2018-03-03T13:21:34.666Z,475
2018-03-03T13:22:34.053Z,475
2018-03-03T13:23:35.191Z,470
2018-03-03T13:24:34.769Z,455
2018-03-03T13:25:34.216Z,445
2018-03-03T13:26:34.187Z,435
2018-03-03T13:27:34.002Z,425
2018-03-03T13:28:34.233Z,420
2018-03-03T13:29:33.597Z,420
2018-03-03T13:30:33.818Z,425
2018-03-03T13:31:33.530Z,430
2018-03-03T13:32:33.999Z,440
2018-03-03T13:33:33.720Z,450
2018-03-03T13:34:33.444Z,460
2018-03-03T13:35:33.668Z,475
2018-03-03T13:36:33.379Z,485
2018-03-03T13:37:33.848Z,505
2018-03-03T13:38:33.818Z,525
2018-03-03T13:39:33.538Z,535
2018-03-03T13:40:33.511Z,540
2018-03-03T13:41:33.505Z,545
2018-03-03T13:42:33.503Z,540
2018-03-03T13:43:33.669Z,530
2018-03-03T13:44:33.394Z,510
2018-03-03T13:45:33.360Z,490
2018-03-03T13:46:33.584Z,475
2018-03-03T13:47:33.049Z,475
2018-03-03T13:48:33.514Z,500
2018-03-03T13:49:33.492Z,515
2018-03-03T13:50:33.212Z,540
2018-03-03T13:51:33.440Z,550
2018-03-03T13:52:33.146Z,555
2018-03-03T13:53:33.587Z,560
2018-03-03T13:54:33.340Z,560
2018-03-03T13:55:33.299Z,565
2018-03-03T13:56:33.269Z,555
2018-03-03T13:57:33.238Z,540
2018-03-03T13:58:33.212Z,525
2018-03-03T13:59:32.977Z,515
2018-03-03T14:00:32.656Z,505
2018-03-03T14:01:32.873Z,500
2018-03-03T14:02:33.096Z,490
2018-03-03T14:03:32.820Z,480
2018-03-03T14:04:32.791Z,465
2018-03-03T14:05:33.006Z,455
2018-03-03T14:06:32.721Z,440
2018-03-03T14:07:32.711Z,425
2018-03-03T14:08:32.665Z,405
2018-03-03T14:09:32.882Z,390
2018-03-03T14:10:32.605Z,380
2018-03-03T14:11:32.585Z,370
2018-03-03T14:12:32.546Z,360
2018-03-03T14:13:32.516Z,350
2018-03-03T14:14:33.060Z,345